createdAt,value
2023-02-25T00:02:01.579Z,81.04
2023-02-25T00:04:30.669Z,80.04
2023-02-25T00:06:57.595Z,80.37
2023-02-25T00:09:24.662Z,80.91
2023-02-25T00:11:51.613Z,80.85
2023-02-25T00:14:23.498Z,80.14
2023-02-25T00:16:50.932Z,79.88
2023-02-25T00:19:23.131Z,79.58
2023-02-25T00:21:50.163Z,80.24
2023-02-25T00:24:21.801Z,78.93
2023-02-25T00:26:50.815Z,79.40
2023-02-25T00:29:20.162Z,79.26
2023-02-25T00:31:49.614Z,79.26
2023-02-25T00:34:18.012Z,79.70
2023-02-25T00:36:52.425Z,80.39
2023-02-25T00:39:19.604Z,80.13
2023-02-25T00:41:46.598Z,80.45
2023-02-25T00:44:15.737Z,81.29
2023-02-25T00:46:44.999Z,81.00
2023-02-25T00:49:16.687Z,80.53
2023-02-25T00:51:48.168Z,80.32
2023-02-25T00:54:15.079Z,80.33
2023-02-25T00:56:44.193Z,81.00
2023-02-25T00:59:13.516Z,81.11
2023-02-25T01:01:44.890Z,80.23
2023-02-25T01:04:12.010Z,80.34
2023-02-25T01:06:41.441Z,80.13
2023-02-25T01:09:14.054Z,80.06
2023-02-25T01:11:47.456Z,79.81
2023-02-25T01:14:19.482Z,79.67
2023-02-25T01:16:50.843Z,79.95
2023-02-25T01:19:24.536Z,79.13
2023-02-25T01:21:55.840Z,78.92
2023-02-25T01:24:30.010Z,78.32
2023-02-25T01:27:00.490Z,78.75
2023-02-25T01:29:39.308Z,78.15
2023-02-25T01:32:15.678Z,78.08
2023-02-25T01:34:42.851Z,77.93
2023-02-25T01:37:10.056Z,77.60
2023-02-25T01:39:37.035Z,78.50
2023-02-25T01:42:12.860Z,78.90
2023-02-25T01:45:15.175Z,79.19
2023-02-25T01:47:45.260Z,78.58
2023-02-25T01:50:17.272Z,78.49
2023-02-25T01:52:45.276Z,78.85
2023-02-25T01:55:12.775Z,78.51
2023-02-25T01:57:42.391Z,77.56
2023-02-25T02:00:17.302Z,77.74
2023-02-25T02:02:47.489Z,77.88
2023-02-25T02:05:15.162Z,76.33
2023-02-25T02:07:42.098Z,76.36
2023-02-25T02:10:16.160Z,76.42
2023-02-25T02:12:46.498Z,76.37
2023-02-25T02:15:15.548Z,76.41
2023-02-25T02:17:51.888Z,75.64
2023-02-25T02:20:56.039Z,75.10
2023-02-25T02:23:57.230Z,75.64
2023-02-25T02:26:59.275Z,75.45
2023-02-25T02:30:23.396Z,74.84
2023-02-25T02:33:20.015Z,74.23
2023-02-25T02:36:02.245Z,74.10
2023-02-25T02:39:13.991Z,74.13
2023-02-25T02:42:15.633Z,74.18
2023-02-25T02:44:54.571Z,74.35
2023-02-25T02:47:30.173Z,74.14
2023-02-25T02:50:18.424Z,74.11
2023-02-25T02:52:53.751Z,74.49
2023-02-25T02:55:31.572Z,74.28
2023-02-25T02:58:13.746Z,73.74
2023-02-25T03:00:45.117Z,74.41
2023-02-25T03:03:19.970Z,75.35
2023-02-25T03:05:51.842Z,75.14
2023-02-25T03:08:29.028Z,74.70
2023-02-25T03:10:55.964Z,75.43
2023-02-25T03:13:23.097Z,75.39
2023-02-25T03:15:52.295Z,74.76
2023-02-25T03:18:45.024Z,73.37
2023-02-25T03:21:18.712Z,72.96
2023-02-25T03:23:50.061Z,73.06
2023-02-25T03:26:30.293Z,74.00
2023-02-25T03:28:57.989Z,73.72
2023-02-25T03:31:36.234Z,75.10
2023-02-25T03:34:16.397Z,74.71
2023-02-25T03:36:57.112Z,74.23
2023-02-25T03:39:32.236Z,74.28
2023-02-25T03:42:02.149Z,73.79
2023-02-25T03:44:37.831Z,74.49
2023-02-25T03:47:08.804Z,74.27
2023-02-25T03:49:50.931Z,74.23
2023-02-25T03:52:23.880Z,74.60
2023-02-25T03:54:53.469Z,75.48
2023-02-25T03:57:25.035Z,74.10
2023-02-25T03:59:56.560Z,74.23
2023-02-25T04:02:33.584Z,74.00
2023-02-25T04:05:03.590Z,73.52
2023-02-25T04:07:35.283Z,72.66
2023-02-25T04:10:03.650Z,72.11
2023-02-25T04:12:30.679Z,72.08
2023-02-25T04:15:00.154Z,71.05
2023-02-25T04:17:30.051Z,70.97
2023-02-25T04:19:56.976Z,69.51
2023-02-25T04:22:26.459Z,69.54
2023-02-25T04:24:53.602Z,69.74
2023-02-25T04:27:20.799Z,68.64
2023-02-25T04:29:49.878Z,68.95
2023-02-25T04:32:16.883Z,69.46
2023-02-25T04:34:43.897Z,70.78
2023-02-25T04:37:13.355Z,71.12
2023-02-25T04:39:40.225Z,70.59
2023-02-25T04:42:07.519Z,70.57
2023-02-25T04:44:34.620Z,71.43
2023-02-25T04:47:03.826Z,71.61
2023-02-25T04:49:30.822Z,72.00
2023-02-25T04:51:59.591Z,72.42
2023-02-25T04:54:28.849Z,72.17
2023-02-25T04:56:56.435Z,72.26
2023-02-25T04:59:26.718Z,72.51
2023-02-25T05:01:53.669Z,72.27
2023-02-25T05:04:22.971Z,72.52
2023-02-25T05:06:49.934Z,72.49
2023-02-25T05:09:16.936Z,71.62
2023-02-25T05:11:43.840Z,72.79
2023-02-25T05:14:13.123Z,72.04
2023-02-25T05:16:42.627Z,72.00
2023-02-25T05:19:09.613Z,71.89
2023-02-25T05:21:36.529Z,72.29
2023-02-25T05:24:03.991Z,72.08
2023-02-25T05:26:33.314Z,71.62
2023-02-25T05:29:00.262Z,72.35
2023-02-25T05:31:27.368Z,72.51
2023-02-25T05:33:56.626Z,73.74
2023-02-25T05:36:28.299Z,72.83
2023-02-25T05:39:03.091Z,72.79
2023-02-25T05:41:30.742Z,72.96
2023-02-25T05:43:58.467Z,72.50
2023-02-25T05:46:26.658Z,73.11
2023-02-25T05:48:54.262Z,74.28
2023-02-25T05:51:23.481Z,73.66
2023-02-25T05:53:52.178Z,73.58
2023-02-25T05:56:31.604Z,74.08
2023-02-25T05:59:01.818Z,74.65
2023-02-25T06:01:31.790Z,73.95
2023-02-25T06:04:01.370Z,73.84
2023-02-25T06:06:31.561Z,73.73
2023-02-25T06:08:58.695Z,73.52
2023-02-25T06:11:32.033Z,74.85
2023-02-25T06:14:00.329Z,75.50
2023-02-25T06:16:33.135Z,74.68
2023-02-25T06:19:02.579Z,74.65
2023-02-25T06:21:30.550Z,74.87
2023-02-25T06:23:57.512Z,73.97
2023-02-25T06:26:24.953Z,73.90
2023-02-25T06:28:52.611Z,74.65
2023-02-25T06:31:22.714Z,74.47
2023-02-25T06:33:54.925Z,74.55
2023-02-25T06:36:22.359Z,74.33
2023-02-25T06:38:49.520Z,74.15
2023-02-25T06:41:22.472Z,74.87
2023-02-25T06:43:52.800Z,74.86
2023-02-25T06:46:26.347Z,75.63
2023-02-25T06:48:57.347Z,76.55
2023-02-25T06:51:25.858Z,76.97
2023-02-25T06:53:55.118Z,76.76
2023-02-25T06:56:26.606Z,77.22
2023-02-25T06:58:53.753Z,77.54
2023-02-25T07:01:20.923Z,77.68
2023-02-25T07:03:47.891Z,77.88
2023-02-25T07:06:18.205Z,77.75
2023-02-25T07:08:52.074Z,77.82
2023-02-25T07:11:18.841Z,78.67
2023-02-25T07:13:50.058Z,78.59
2023-02-25T07:16:17.783Z,79.01
2023-02-25T07:18:45.400Z,78.62
2023-02-25T07:21:15.932Z,78.90
2023-02-25T07:23:43.110Z,78.68
2023-02-25T07:26:12.803Z,79.46
2023-02-25T07:28:40.673Z,79.15
2023-02-25T07:31:18.698Z,80.35
2023-02-25T07:33:46.593Z,79.28
2023-02-25T07:36:15.301Z,79.93
2023-02-25T07:38:42.535Z,79.29
2023-02-25T07:41:18.021Z,79.56
2023-02-25T07:43:45.498Z,79.13
2023-02-25T07:46:13.411Z,78.32
2023-02-25T07:48:40.625Z,77.54
2023-02-25T07:51:15.458Z,76.64
2023-02-25T07:53:45.706Z,77.48
2023-02-25T07:56:13.567Z,76.83
2023-02-25T07:58:42.941Z,74.66
2023-02-25T08:01:33.156Z,74.62
2023-02-25T08:04:05.824Z,73.34
2023-02-25T08:06:42.606Z,72.58
2023-02-25T08:09:13.822Z,71.35
2023-02-25T08:11:44.167Z,70.47
2023-02-25T08:14:12.051Z,70.80
2023-02-25T08:16:39.143Z,68.61
2023-02-25T08:19:06.942Z,66.88
2023-02-25T08:21:37.414Z,65.13
2023-02-25T08:24:04.772Z,66.35
2023-02-25T08:26:31.883Z,66.47
2023-02-25T08:29:00.917Z,65.13
2023-02-25T08:31:28.474Z,64.45
2023-02-25T08:33:59.567Z,62.37
2023-02-25T08:36:32.709Z,61.49
2023-02-25T08:39:03.726Z,60.94
2023-02-25T08:41:33.030Z,61.61
2023-02-25T08:44:01.289Z,63.95
2023-02-25T08:46:31.451Z,65.14
2023-02-25T08:48:58.885Z,66.95
2023-02-25T08:51:34.204Z,67.57
2023-02-25T08:54:15.394Z,67.66
2023-02-25T08:56:44.424Z,68.77
2023-02-25T08:59:15.106Z,70.66
2023-02-25T09:01:49.177Z,71.60
2023-02-25T09:04:19.369Z,69.67
2023-02-25T09:06:50.830Z,65.58
2023-02-25T09:09:20.328Z,60.93
2023-02-25T09:11:49.239Z,53.40
2023-02-25T09:14:19.683Z,50.90
2023-02-25T09:16:47.079Z,50.77
2023-02-25T09:19:17.229Z,45.95
2023-02-25T09:21:48.045Z,41.20
2023-02-25T09:24:18.355Z,41.90
2023-02-25T09:26:47.702Z,44.18
2023-02-25T09:29:14.723Z,41.59
2023-02-25T09:31:41.925Z,43.91
2023-02-25T09:34:15.244Z,44.12
2023-02-25T09:36:42.448Z,44.45
2023-02-25T09:39:10.275Z,46.17
2023-02-25T09:41:55.769Z,50.05
2023-02-25T09:44:31.738Z,53.42
2023-02-25T09:47:09.807Z,56.25
2023-02-25T09:49:42.962Z,60.47
2023-02-25T09:52:18.697Z,64.39
2023-02-25T09:54:55.973Z,65.18
2023-02-25T09:57:25.364Z,66.76
2023-02-25T09:59:57.220Z,64.43
2023-02-25T10:02:40.960Z,62.81
2023-02-25T10:05:33.995Z,64.66
2023-02-25T10:08:25.207Z,67.14
2023-02-25T10:11:12.698Z,69.26
2023-02-25T10:14:04.982Z,69.12
2023-02-25T10:16:45.517Z,69.25
2023-02-25T10:19:37.158Z,68.14
2023-02-25T10:22:27.464Z,68.41
2023-02-25T10:25:05.320Z,71.43
2023-02-25T10:27:43.882Z,70.35
2023-02-25T10:30:31.442Z,73.41
2023-02-25T10:33:05.734Z,74.23
2023-02-25T10:35:40.772Z,73.24
2023-02-25T10:38:11.054Z,73.25
2023-02-25T10:40:40.213Z,70.82
2023-02-25T10:43:27.538Z,71.55
2023-02-25T10:46:19.088Z,72.79
2023-02-25T10:48:56.641Z,73.90
2023-02-25T10:51:28.298Z,74.90
2023-02-25T10:53:58.222Z,75.57
2023-02-25T10:56:39.900Z,75.07
2023-02-25T10:59:40.025Z,73.82
2023-02-25T11:02:31.481Z,71.84
2023-02-25T11:05:01.513Z,69.07
2023-02-25T11:07:45.079Z,61.81
2023-02-25T11:10:23.869Z,52.64
2023-02-25T11:12:57.924Z,53.89
2023-02-25T11:15:45.700Z,56.23
2023-02-25T11:18:32.839Z,56.58
2023-02-25T11:21:13.060Z,56.86
2023-02-25T11:23:47.453Z,56.09
2023-02-25T11:26:39.339Z,57.89
2023-02-25T11:29:23.182Z,57.48
2023-02-25T11:32:05.371Z,57.24
2023-02-25T11:34:47.100Z,57.33
2023-02-25T11:40:07.950Z,59.95
2023-02-25T11:42:35.091Z,61.43
2023-02-25T11:45:05.636Z,61.15
2023-02-25T11:47:42.165Z,62.40
2023-02-25T11:50:25.721Z,60.74
2023-02-25T11:53:24.856Z,63.02
2023-02-25T11:55:57.557Z,61.82
2023-02-25T11:58:39.695Z,61.73
2023-02-25T12:01:31.123Z,59.81
2023-02-25T12:04:21.636Z,58.75
2023-02-25T12:07:08.209Z,58.77
2023-02-25T12:10:33.256Z,57.20
2023-02-25T12:13:41.016Z,45.42
2023-02-25T12:16:28.968Z,46.21
2023-02-25T12:19:32.798Z,49.66
2023-02-25T12:22:37.685Z,51.26
2023-02-25T12:25:13.233Z,52.70
2023-02-25T12:28:10.770Z,54.14
2023-02-25T12:31:24.968Z,54.61
2023-02-25T12:34:29.243Z,53.75
2023-02-25T12:37:33.432Z,52.96
2023-02-25T12:40:19.959Z,50.84
2023-02-25T12:43:07.114Z,50.46
2023-02-25T12:46:17.016Z,43.71
2023-02-25T12:49:42.315Z,35.56
2023-02-25T12:52:37.203Z,31.58
2023-02-25T12:55:24.872Z,33.67
2023-02-25T12:58:29.565Z,35.49
2023-02-25T13:01:34.453Z,33.10
2023-02-25T13:04:38.623Z,29.62
2023-02-25T13:07:36.686Z,25.67
2023-02-25T13:10:06.529Z,25.89
2023-02-25T13:13:00.671Z,26.78
2023-02-25T13:15:53.991Z,25.25
2023-02-25T13:19:04.640Z,26.50
2023-02-25T13:21:40.004Z,29.51
2023-02-25T13:24:12.548Z,31.03
2023-02-25T13:26:54.960Z,31.75
2023-02-25T13:29:42.857Z,31.35
2023-02-25T13:32:31.181Z,32.73
2023-02-25T13:35:48.863Z,36.05
2023-02-25T13:38:27.991Z,36.79
2023-02-25T13:41:44.828Z,34.48
2023-02-25T13:44:50.453Z,30.79
2023-02-25T13:48:05.329Z,27.97
2023-02-25T13:51:11.557Z,24.79
2023-02-25T13:54:11.929Z,24.57
2023-02-25T13:57:02.629Z,26.19
2023-02-25T14:00:07.045Z,25.24
2023-02-25T14:02:55.817Z,24.60
2023-02-25T14:05:31.413Z,25.38
2023-02-25T14:08:34.693Z,28.56
2023-02-25T14:11:28.157Z,30.34
2023-02-25T14:14:52.602Z,32.53
2023-02-25T14:17:54.979Z,33.13
2023-02-25T14:20:50.236Z,32.93
2023-02-25T14:24:13.148Z,34.84
2023-02-25T14:27:10.269Z,36.37
2023-02-25T14:30:14.253Z,37.46
2023-02-25T14:32:52.852Z,39.50
2023-02-25T14:36:00.993Z,39.27
2023-02-25T14:38:42.799Z,39.31
2023-02-25T14:41:30.561Z,40.74
2023-02-25T14:44:08.545Z,39.39
2023-02-25T14:46:54.794Z,40.08
2023-02-25T14:49:38.211Z,40.59
2023-02-25T14:52:47.991Z,40.01
2023-02-25T14:56:11.648Z,39.06
2023-02-25T14:59:14.421Z,40.33
2023-02-25T15:02:28.123Z,42.10
2023-02-25T15:05:08.419Z,42.10
2023-02-25T15:08:17.808Z,42.77
2023-02-25T15:11:25.308Z,42.27
2023-02-25T15:14:28.257Z,39.39
2023-02-25T15:17:36.948Z,35.77
2023-02-25T15:20:34.620Z,34.09
2023-02-25T15:23:12.698Z,35.86
2023-02-25T15:26:19.237Z,37.80
2023-02-25T15:28:51.580Z,40.11
2023-02-25T15:31:34.028Z,40.10
2023-02-25T15:34:21.211Z,40.24
2023-02-25T15:36:52.503Z,40.09
2023-02-25T15:39:42.270Z,39.98
2023-02-25T15:42:12.165Z,41.88
2023-02-25T15:44:44.167Z,42.56
2023-02-25T15:47:27.485Z,42.03
2023-02-25T15:49:57.050Z,41.95
2023-02-25T15:53:00.416Z,43.60
2023-02-25T15:55:34.938Z,45.78
2023-02-25T15:58:04.343Z,48.88
2023-02-25T16:00:47.240Z,48.25
2023-02-25T16:03:32.255Z,49.38
2023-02-25T16:06:17.433Z,46.62
2023-02-25T16:09:15.291Z,46.71
2023-02-25T16:11:45.008Z,47.55
2023-02-25T16:14:31.788Z,46.64
2023-02-25T16:17:35.588Z,45.96
2023-02-25T16:20:30.650Z,46.73
2023-02-25T16:23:03.121Z,46.84
2023-02-25T16:25:53.044Z,47.67
2023-02-25T16:28:32.216Z,47.54
2023-02-25T16:31:27.462Z,46.48
2023-02-25T16:33:57.467Z,46.85
2023-02-25T16:36:48.414Z,46.75
2023-02-25T16:39:30.246Z,47.13
2023-02-25T16:42:12.845Z,47.03
2023-02-25T16:44:49.674Z,47.04
2023-02-25T16:47:30.966Z,47.03
2023-02-25T16:50:01.133Z,46.82
2023-02-25T16:52:36.858Z,47.47
2023-02-25T16:55:12.644Z,47.27
2023-02-25T16:57:39.935Z,47.59
2023-02-25T17:00:17.256Z,47.80
2023-02-25T17:02:51.473Z,47.47
2023-02-25T17:05:30.033Z,48.20
2023-02-25T17:08:02.371Z,47.56
2023-02-25T17:10:45.977Z,47.71
2023-02-25T17:13:24.495Z,48.02
2023-02-25T17:15:52.987Z,49.02
2023-02-25T17:18:27.122Z,48.25
2023-02-25T17:21:07.599Z,48.31
2023-02-25T17:23:43.653Z,48.16
2023-02-25T17:26:23.297Z,49.46
2023-02-25T17:28:57.752Z,49.16
2023-02-25T17:31:30.034Z,48.73
2023-02-25T17:34:04.067Z,49.23
2023-02-25T17:36:39.317Z,49.83
2023-02-25T17:39:16.105Z,49.37
2023-02-25T17:41:43.756Z,50.12
2023-02-25T17:44:42.579Z,50.63
2023-02-25T17:47:13.033Z,50.33
2023-02-25T17:49:42.168Z,50.64
2023-02-25T17:52:31.847Z,51.14
2023-02-25T17:55:08.029Z,52.01
2023-02-25T17:57:42.607Z,52.48
2023-02-25T18:00:35.713Z,52.28
2023-02-25T18:03:18.213Z,52.19
2023-02-25T18:05:59.073Z,52.99
2023-02-25T18:08:34.314Z,53.04
2023-02-25T18:11:27.415Z,52.93
2023-02-25T18:13:57.229Z,53.31
2023-02-25T18:16:41.459Z,52.91
2023-02-25T18:19:28.147Z,53.16
2023-02-25T18:21:55.623Z,53.92
2023-02-25T18:24:34.545Z,54.02
2023-02-25T18:27:17.586Z,54.69
2023-02-25T18:29:46.680Z,55.21
2023-02-25T18:32:16.205Z,55.23
2023-02-25T18:34:43.276Z,54.64
2023-02-25T18:37:18.142Z,55.15
2023-02-25T18:39:47.663Z,55.15
2023-02-25T18:42:18.484Z,55.19
2023-02-25T18:44:49.123Z,55.43
2023-02-25T18:47:16.856Z,55.57
2023-02-25T18:49:45.361Z,55.27
2023-02-25T18:52:26.117Z,55.05
2023-02-25T18:54:53.004Z,55.91
2023-02-25T18:57:29.180Z,55.81
2023-02-25T19:00:00.586Z,55.95
2023-02-25T19:02:34.958Z,55.57
2023-02-25T19:05:04.146Z,55.48
2023-02-25T19:07:37.472Z,55.06
2023-02-25T19:10:05.939Z,54.76
2023-02-25T19:12:37.997Z,54.60
2023-02-25T19:15:11.803Z,54.77
2023-02-25T19:17:41.354Z,55.64
2023-02-25T19:20:13.118Z,55.18
2023-02-25T19:22:45.533Z,54.88
2023-02-25T19:25:27.992Z,55.18
2023-02-25T19:27:56.416Z,55.04
2023-02-25T19:30:34.970Z,55.57
2023-02-25T19:33:06.379Z,55.36
2023-02-25T19:35:39.325Z,54.81
2023-02-25T19:38:18.582Z,55.12
2023-02-25T19:40:47.526Z,58.35
2023-02-25T19:43:18.570Z,60.10
2023-02-25T19:45:45.945Z,61.67
2023-02-25T19:48:13.097Z,63.25
2023-02-25T19:50:42.638Z,65.21
2023-02-25T19:53:12.270Z,70.46
2023-02-25T19:55:42.109Z,73.32
2023-02-25T19:58:11.195Z,74.30
2023-02-25T20:00:46.205Z,74.52
2023-02-25T20:03:18.190Z,75.38
2023-02-25T20:05:50.740Z,74.59
2023-02-25T20:08:20.174Z,74.84
2023-02-25T20:10:49.510Z,74.75
2023-02-25T20:13:17.783Z,75.32
2023-02-25T20:15:46.894Z,76.53
2023-02-25T20:18:13.770Z,76.17
2023-02-25T20:20:44.383Z,76.36
2023-02-25T20:23:11.480Z,75.72
2023-02-25T20:25:38.594Z,76.37
2023-02-25T20:28:05.573Z,76.08
2023-02-25T20:30:32.669Z,75.21
2023-02-25T20:33:04.782Z,75.61
2023-02-25T20:35:34.751Z,75.50
2023-02-25T20:38:17.012Z,75.62
2023-02-25T20:40:44.107Z,75.65
2023-02-25T20:43:15.217Z,75.41
2023-02-25T20:45:42.671Z,76.15
2023-02-25T20:48:27.126Z,74.63
2023-02-25T20:50:55.125Z,74.46
2023-02-25T20:53:24.892Z,73.90
2023-02-25T20:55:59.398Z,74.96
2023-02-25T20:58:31.009Z,74.07
2023-02-25T21:01:02.646Z,74.81
2023-02-25T21:03:32.119Z,74.94
2023-02-25T21:06:01.660Z,74.83
2023-02-25T21:08:28.932Z,75.04
2023-02-25T21:11:00.860Z,74.68
2023-02-25T21:13:27.836Z,74.20
2023-02-25T21:16:07.430Z,73.88
2023-02-25T21:18:34.982Z,74.79
2023-02-25T21:21:08.958Z,74.93
2023-02-25T21:23:37.397Z,74.98
2023-02-25T21:26:06.151Z,75.07
2023-02-25T21:28:33.406Z,74.73
2023-02-25T21:31:12.912Z,74.38
2023-02-25T21:33:40.813Z,73.73
2023-02-25T21:36:09.895Z,73.31
2023-02-25T21:38:39.886Z,73.27
2023-02-25T21:41:13.775Z,73.69
2023-02-25T21:43:42.269Z,73.86
2023-02-25T21:46:13.029Z,73.59
2023-02-25T21:48:44.246Z,73.18
2023-02-25T21:51:23.474Z,72.42
2023-02-25T21:53:57.293Z,72.15
2023-02-25T21:56:25.855Z,71.79
2023-02-25T21:58:55.642Z,71.81
2023-02-25T22:01:35.689Z,72.64
2023-02-25T22:04:03.970Z,72.90
2023-02-25T22:06:33.813Z,73.63
2023-02-25T22:09:01.626Z,73.43
2023-02-25T22:11:32.609Z,73.88
2023-02-25T22:14:03.387Z,71.88
2023-02-25T22:16:30.509Z,72.47
2023-02-25T22:18:58.813Z,72.15
2023-02-25T22:21:29.088Z,72.26
2023-02-25T22:24:01.982Z,72.47
2023-02-25T22:26:32.575Z,71.87
2023-02-25T22:29:05.549Z,72.13
2023-02-25T22:31:35.436Z,71.04
2023-02-25T22:34:03.353Z,71.05
2023-02-25T22:36:30.343Z,72.25
2023-02-25T22:38:57.373Z,72.38
2023-02-25T22:41:32.844Z,71.88
2023-02-25T22:44:01.242Z,72.13
2023-02-25T22:46:37.310Z,71.46
2023-02-25T22:49:05.855Z,70.26
2023-02-25T22:51:41.980Z,70.75
2023-02-25T22:54:20.144Z,71.17
2023-02-25T22:56:52.564Z,71.05
2023-02-25T22:59:21.981Z,70.91
2023-02-25T23:01:48.929Z,71.43
2023-02-25T23:04:19.008Z,70.78
2023-02-25T23:06:50.546Z,70.54
2023-02-25T23:09:17.952Z,71.22
2023-02-25T23:11:49.970Z,70.22
2023-02-25T23:14:16.903Z,70.91
2023-02-25T23:16:47.190Z,70.48
2023-02-25T23:19:18.202Z,70.61
2023-02-25T23:21:45.819Z,70.88
2023-02-25T23:24:19.625Z,72.56
2023-02-25T23:26:50.815Z,73.93
2023-02-25T23:29:18.044Z,76.28
2023-02-25T23:31:47.959Z,78.06
2023-02-25T23:34:25.999Z,77.73
2023-02-25T23:36:59.485Z,78.31
2023-02-25T23:39:26.748Z,78.24
2023-02-25T23:41:55.973Z,77.48
2023-02-25T23:44:23.457Z,76.87
2023-02-25T23:46:50.562Z,76.96
2023-02-25T23:49:19.989Z,77.30
2023-02-25T23:51:50.949Z,77.32
2023-02-25T23:54:21.341Z,78.13
2023-02-25T23:56:49.871Z,78.95
2023-02-25T23:59:22.373Z,78.32
